sensor_id;sensor_type;location;lat;lon;timestamp;P1;durP1;ratioP1;P2;durP2;ratioP2
76597;SDS011;65486;53.144;18.134;2022-12-20T00:01:40;27.30;;;11.80;;
76597;SDS011;65486;53.144;18.134;2022-12-20T00:04:07;31.20;;;13.60;;
76597;SDS011;65486;53.144;18.134;2022-12-20T00:06:36;39.60;;;16.50;;
76597;SDS011;65486;53.144;18.134;2022-12-20T00:09:04;42.80;;;18.30;;
76597;SDS011;65486;53.144;18.134;2022-12-20T00:11:33;43.60;;;18.00;;
76597;SDS011;65486;53.144;18.134;2022-12-20T00:14:00;35.50;;;15.90;;
76597;SDS011;65486;53.144;18.134;2022-12-20T00:16:28;41.60;;;18.00;;
76597;SDS011;65486;53.144;18.134;2022-12-20T00:18:57;36.90;;;16.10;;
76597;SDS011;65486;53.144;18.134;2022-12-20T00:21:29;33.20;;;14.70;;
76597;SDS011;65486;53.144;18.134;2022-12-20T00:23:57;37.50;;;16.60;;
76597;SDS011;65486;53.144;18.134;2022-12-20T00:26:26;42.90;;;17.50;;
76597;SDS011;65486;53.144;18.134;2022-12-20T00:28:54;43.00;;;17.10;;
76597;SDS011;65486;53.144;18.134;2022-12-20T00:31:22;42.50;;;17.90;;
76597;SDS011;65486;53.144;18.134;2022-12-20T00:33:51;35.60;;;16.10;;
76597;SDS011;65486;53.144;18.134;2022-12-20T00:36:21;35.60;;;14.90;;
76597;SDS011;65486;53.144;18.134;2022-12-20T00:38:53;41.30;;;16.90;;
76597;SDS011;65486;53.144;18.134;2022-12-20T00:41:33;34.00;;;15.10;;
76597;SDS011;65486;53.144;18.134;2022-12-20T00:44:01;27.90;;;11.90;;
76597;SDS011;65486;53.144;18.134;2022-12-20T00:46:29;40.50;;;16.70;;
76597;SDS011;65486;53.144;18.134;2022-12-20T00:48:58;42.50;;;18.20;;
76597;SDS011;65486;53.144;18.134;2022-12-20T00:51:39;42.30;;;18.80;;
76597;SDS011;65486;53.144;18.134;2022-12-20T00:54:06;40.10;;;16.60;;
76597;SDS011;65486;53.144;18.134;2022-12-20T00:56:33;34.00;;;13.60;;
76597;SDS011;65486;53.144;18.134;2022-12-20T00:59:02;34.10;;;15.20;;
76597;SDS011;65486;53.144;18.134;2022-12-20T01:01:32;26.30;;;11.20;;
76597;SDS011;65486;53.144;18.134;2022-12-20T01:04:02;38.10;;;15.40;;
76597;SDS011;65486;53.144;18.134;2022-12-20T01:06:29;26.20;;;9.20;;
76597;SDS011;65486;53.144;18.134;2022-12-20T01:08:58;45.30;;;18.20;;
76597;SDS011;65486;53.144;18.134;2022-12-20T01:11:29;45.20;;;18.10;;
76597;SDS011;65486;53.144;18.134;2022-12-20T01:14:00;44.40;;;17.10;;
76597;SDS011;65486;53.144;18.134;2022-12-20T01:16:35;44.40;;;16.70;;
76597;SDS011;65486;53.144;18.134;2022-12-20T01:19:10;40.80;;;16.20;;
76597;SDS011;65486;53.144;18.134;2022-12-20T01:21:41;25.90;;;10.80;;
76597;SDS011;65486;53.144;18.134;2022-12-20T01:24:12;28.60;;;10.60;;
76597;SDS011;65486;53.144;18.134;2022-12-20T01:26:40;36.80;;;16.50;;
76597;SDS011;65486;53.144;18.134;2022-12-20T01:29:08;41.20;;;17.20;;
76597;SDS011;65486;53.144;18.134;2022-12-20T01:31:35;25.70;;;11.00;;
76597;SDS011;65486;53.144;18.134;2022-12-20T01:34:04;33.40;;;13.70;;
76597;SDS011;65486;53.144;18.134;2022-12-20T01:36:40;38.70;;;15.30;;
76597;SDS011;65486;53.144;18.134;2022-12-20T01:39:12;36.10;;;14.60;;
76597;SDS011;65486;53.144;18.134;2022-12-20T01:41:44;40.00;;;15.90;;
76597;SDS011;65486;53.144;18.134;2022-12-20T01:46:42;41.50;;;16.00;;
76597;SDS011;65486;53.144;18.134;2022-12-20T01:57:19;42.80;;;17.60;;
76597;SDS011;65486;53.144;18.134;2022-12-20T01:59:49;41.70;;;17.60;;
76597;SDS011;65486;53.144;18.134;2022-12-20T02:02:20;45.40;;;18.70;;
76597;SDS011;65486;53.144;18.134;2022-12-20T02:04:48;39.40;;;16.40;;
76597;SDS011;65486;53.144;18.134;2022-12-20T02:07:17;39.90;;;15.00;;
76597;SDS011;65486;53.144;18.134;2022-12-20T02:09:49;46.50;;;16.10;;
76597;SDS011;65486;53.144;18.134;2022-12-20T02:12:21;32.10;;;12.90;;
76597;SDS011;65486;53.144;18.134;2022-12-20T02:31:49;34.20;;;13.70;;
76597;SDS011;65486;53.144;18.134;2022-12-20T02:34:25;32.50;;;13.70;;
76597;SDS011;65486;53.144;18.134;2022-12-20T02:36:56;31.50;;;13.70;;
76597;SDS011;65486;53.144;18.134;2022-12-20T02:39:23;38.50;;;14.90;;
76597;SDS011;65486;53.144;18.134;2022-12-20T02:41:55;37.90;;;14.80;;
76597;SDS011;65486;53.144;18.134;2022-12-20T02:44:26;31.70;;;13.70;;
76597;SDS011;65486;53.144;18.134;2022-12-20T02:47:17;35.90;;;15.00;;
76597;SDS011;65486;53.144;18.134;2022-12-20T02:49:56;36.30;;;14.90;;
76597;SDS011;65486;53.144;18.134;2022-12-20T02:52:24;39.00;;;14.30;;
76597;SDS011;65486;53.144;18.134;2022-12-20T02:54:53;38.00;;;15.00;;
76597;SDS011;65486;53.144;18.134;2022-12-20T03:00:36;36.10;;;13.90;;
76597;SDS011;65486;53.144;18.134;2022-12-20T03:03:08;32.00;;;12.80;;
76597;SDS011;65486;53.144;18.134;2022-12-20T03:05:49;32.60;;;14.10;;
76597;SDS011;65486;53.144;18.134;2022-12-20T03:08:20;25.00;;;10.10;;
76597;SDS011;65486;53.144;18.134;2022-12-20T03:10:49;26.40;;;11.00;;
76597;SDS011;65486;53.144;18.134;2022-12-20T03:13:17;38.70;;;14.90;;
76597;SDS011;65486;53.144;18.134;2022-12-20T03:15:52;34.60;;;14.20;;
76597;SDS011;65486;53.144;18.134;2022-12-20T03:18:27;29.70;;;12.70;;
76597;SDS011;65486;53.144;18.134;2022-12-20T03:20:53;32.50;;;14.10;;
76597;SDS011;65486;53.144;18.134;2022-12-20T03:23:21;33.90;;;14.50;;
76597;SDS011;65486;53.144;18.134;2022-12-20T03:25:48;36.00;;;14.90;;
76597;SDS011;65486;53.144;18.134;2022-12-20T03:28:25;31.70;;;14.60;;
76597;SDS011;65486;53.144;18.134;2022-12-20T03:30:52;33.10;;;14.20;;
76597;SDS011;65486;53.144;18.134;2022-12-20T03:33:19;29.20;;;12.50;;
76597;SDS011;65486;53.144;18.134;2022-12-20T03:35:46;35.50;;;14.90;;
76597;SDS011;65486;53.144;18.134;2022-12-20T03:38:14;34.10;;;14.30;;
76597;SDS011;65486;53.144;18.134;2022-12-20T03:40:41;34.30;;;15.00;;
76597;SDS011;65486;53.144;18.134;2022-12-20T03:43:08;21.10;;;8.00;;
76597;SDS011;65486;53.144;18.134;2022-12-20T03:45:35;30.80;;;13.40;;
76597;SDS011;65486;53.144;18.134;2022-12-20T03:48:03;30.70;;;12.90;;
76597;SDS011;65486;53.144;18.134;2022-12-20T03:50:30;36.30;;;14.30;;
76597;SDS011;65486;53.144;18.134;2022-12-20T03:52:57;31.60;;;13.00;;
76597;SDS011;65486;53.144;18.134;2022-12-20T03:55:25;32.70;;;14.50;;
76597;SDS011;65486;53.144;18.134;2022-12-20T03:57:52;35.80;;;15.30;;
76597;SDS011;65486;53.144;18.134;2022-12-20T04:00:34;37.40;;;14.60;;
76597;SDS011;65486;53.144;18.134;2022-12-20T04:03:29;34.50;;;13.60;;
76597;SDS011;65486;53.144;18.134;2022-12-20T04:05:56;34.50;;;13.80;;
76597;SDS011;65486;53.144;18.134;2022-12-20T04:08:23;35.30;;;14.80;;
76597;SDS011;65486;53.144;18.134;2022-12-20T04:10:52;29.20;;;12.50;;
76597;SDS011;65486;53.144;18.134;2022-12-20T04:13:38;32.40;;;14.10;;
76597;SDS011;65486;53.144;18.134;2022-12-20T04:16:09;36.60;;;15.40;;
76597;SDS011;65486;53.144;18.134;2022-12-20T04:18:39;33.10;;;14.20;;
76597;SDS011;65486;53.144;18.134;2022-12-20T04:21:09;32.10;;;14.10;;
76597;SDS011;65486;53.144;18.134;2022-12-20T04:23:39;32.30;;;13.50;;
76597;SDS011;65486;53.144;18.134;2022-12-20T04:26:08;29.80;;;12.70;;
76597;SDS011;65486;53.144;18.134;2022-12-20T04:28:36;36.30;;;14.50;;
76597;SDS011;65486;53.144;18.134;2022-12-20T04:31:03;30.80;;;12.60;;
76597;SDS011;65486;53.144;18.134;2022-12-20T04:33:34;34.20;;;13.80;;
76597;SDS011;65486;53.144;18.134;2022-12-20T04:36:03;37.10;;;15.30;;
76597;SDS011;65486;53.144;18.134;2022-12-20T04:38:34;37.60;;;14.60;;
76597;SDS011;65486;53.144;18.134;2022-12-20T04:41:09;31.60;;;13.60;;
76597;SDS011;65486;53.144;18.134;2022-12-20T04:43:49;29.40;;;11.80;;
76597;SDS011;65486;53.144;18.134;2022-12-20T04:46:18;32.30;;;13.50;;
76597;SDS011;65486;53.144;18.134;2022-12-20T04:48:49;34.10;;;14.20;;
76597;SDS011;65486;53.144;18.134;2022-12-20T04:51:19;35.30;;;14.40;;
76597;SDS011;65486;53.144;18.134;2022-12-20T04:53:47;31.10;;;13.50;;
76597;SDS011;65486;53.144;18.134;2022-12-20T04:56:25;32.00;;;13.20;;
76597;SDS011;65486;53.144;18.134;2022-12-20T04:58:56;36.10;;;14.20;;
76597;SDS011;65486;53.144;18.134;2022-12-20T05:01:25;31.70;;;14.00;;
76597;SDS011;65486;53.144;18.134;2022-12-20T05:03:52;35.20;;;14.60;;
76597;SDS011;65486;53.144;18.134;2022-12-20T05:06:19;33.00;;;14.80;;
76597;SDS011;65486;53.144;18.134;2022-12-20T05:08:47;32.70;;;13.70;;
76597;SDS011;65486;53.144;18.134;2022-12-20T05:11:17;29.90;;;12.50;;
76597;SDS011;65486;53.144;18.134;2022-12-20T05:13:46;31.80;;;13.30;;
76597;SDS011;65486;53.144;18.134;2022-12-20T05:16:15;31.50;;;13.90;;
76597;SDS011;65486;53.144;18.134;2022-12-20T05:18:44;30.50;;;12.90;;
76597;SDS011;65486;53.144;18.134;2022-12-20T05:21:14;21.80;;;9.30;;
76597;SDS011;65486;53.144;18.134;2022-12-20T05:24:00;17.20;;;7.20;;
76597;SDS011;65486;53.144;18.134;2022-12-20T05:27:14;29.60;;;13.60;;
76597;SDS011;65486;53.144;18.134;2022-12-20T05:29:41;32.90;;;14.40;;
76597;SDS011;65486;53.144;18.134;2022-12-20T05:32:09;31.70;;;13.90;;
76597;SDS011;65486;53.144;18.134;2022-12-20T05:34:39;33.10;;;14.80;;
76597;SDS011;65486;53.144;18.134;2022-12-20T05:37:06;32.40;;;13.60;;
76597;SDS011;65486;53.144;18.134;2022-12-20T05:39:34;35.00;;;14.30;;
76597;SDS011;65486;53.144;18.134;2022-12-20T05:42:06;33.00;;;14.80;;
76597;SDS011;65486;53.144;18.134;2022-12-20T05:44:36;33.00;;;14.90;;
76597;SDS011;65486;53.144;18.134;2022-12-20T05:47:04;31.70;;;13.80;;
76597;SDS011;65486;53.144;18.134;2022-12-20T05:49:33;25.20;;;8.90;;
76597;SDS011;65486;53.144;18.134;2022-12-20T05:52:02;30.50;;;12.90;;
76597;SDS011;65486;53.144;18.134;2022-12-20T05:54:42;29.20;;;13.00;;
76597;SDS011;65486;53.144;18.134;2022-12-20T05:57:14;34.00;;;14.70;;
76597;SDS011;65486;53.144;18.134;2022-12-20T05:59:46;33.40;;;14.10;;
76597;SDS011;65486;53.144;18.134;2022-12-20T06:02:17;26.00;;;10.90;;
76597;SDS011;65486;53.144;18.134;2022-12-20T06:04:46;35.10;;;14.10;;
76597;SDS011;65486;53.144;18.134;2022-12-20T06:07:20;32.10;;;14.20;;
76597;SDS011;65486;53.144;18.134;2022-12-20T06:09:52;32.10;;;13.80;;
76597;SDS011;65486;53.144;18.134;2022-12-20T06:12:31;31.80;;;13.80;;
76597;SDS011;65486;53.144;18.134;2022-12-20T06:15:02;29.40;;;12.50;;
76597;SDS011;65486;53.144;18.134;2022-12-20T06:17:35;27.30;;;11.50;;
76597;SDS011;65486;53.144;18.134;2022-12-20T06:20:03;38.00;;;15.00;;
76597;SDS011;65486;53.144;18.134;2022-12-20T06:22:30;34.30;;;14.80;;
76597;SDS011;65486;53.144;18.134;2022-12-20T06:24:57;37.80;;;15.30;;
76597;SDS011;65486;53.144;18.134;2022-12-20T06:27:27;31.20;;;13.60;;
76597;SDS011;65486;53.144;18.134;2022-12-20T06:30:07;29.70;;;13.80;;
76597;SDS011;65486;53.144;18.134;2022-12-20T06:32:47;34.00;;;14.30;;
76597;SDS011;65486;53.144;18.134;2022-12-20T06:35:22;32.30;;;14.20;;
76597;SDS011;65486;53.144;18.134;2022-12-20T06:37:55;36.70;;;15.50;;
76597;SDS011;65486;53.144;18.134;2022-12-20T06:40:25;32.70;;;13.90;;
76597;SDS011;65486;53.144;18.134;2022-12-20T06:42:52;36.00;;;14.40;;
76597;SDS011;65486;53.144;18.134;2022-12-20T06:45:22;33.90;;;14.00;;
76597;SDS011;65486;53.144;18.134;2022-12-20T06:47:49;36.90;;;14.50;;
76597;SDS011;65486;53.144;18.134;2022-12-20T06:50:16;34.00;;;14.50;;
76597;SDS011;65486;53.144;18.134;2022-12-20T06:52:54;33.60;;;13.90;;
76597;SDS011;65486;53.144;18.134;2022-12-20T06:55:33;33.90;;;14.20;;
76597;SDS011;65486;53.144;18.134;2022-12-20T06:58:02;34.00;;;14.30;;
76597;SDS011;65486;53.144;18.134;2022-12-20T07:00:31;32.00;;;13.80;;
76597;SDS011;65486;53.144;18.134;2022-12-20T07:02:58;33.30;;;14.90;;
76597;SDS011;65486;53.144;18.134;2022-12-20T07:05:25;31.50;;;12.90;;
76597;SDS011;65486;53.144;18.134;2022-12-20T07:07:52;34.60;;;14.00;;
76597;SDS011;65486;53.144;18.134;2022-12-20T07:10:20;33.80;;;14.50;;
76597;SDS011;65486;53.144;18.134;2022-12-20T07:12:48;31.20;;;13.30;;
76597;SDS011;65486;53.144;18.134;2022-12-20T07:15:17;32.80;;;14.20;;
76597;SDS011;65486;53.144;18.134;2022-12-20T07:17:47;33.00;;;12.90;;
76597;SDS011;65486;53.144;18.134;2022-12-20T07:20:14;33.20;;;13.80;;
76597;SDS011;65486;53.144;18.134;2022-12-20T07:22:42;34.00;;;14.20;;
76597;SDS011;65486;53.144;18.134;2022-12-20T07:25:09;33.90;;;14.00;;
76597;SDS011;65486;53.144;18.134;2022-12-20T07:27:37;34.70;;;14.50;;
76597;SDS011;65486;53.144;18.134;2022-12-20T07:30:04;35.60;;;14.90;;
76597;SDS011;65486;53.144;18.134;2022-12-20T07:32:34;32.50;;;14.20;;
76597;SDS011;65486;53.144;18.134;2022-12-20T07:35:05;37.20;;;15.20;;
76597;SDS011;65486;53.144;18.134;2022-12-20T07:37:38;32.80;;;14.20;;
76597;SDS011;65486;53.144;18.134;2022-12-20T07:40:09;35.30;;;14.20;;
76597;SDS011;65486;53.144;18.134;2022-12-20T07:42:37;34.30;;;14.30;;
76597;SDS011;65486;53.144;18.134;2022-12-20T07:45:05;35.90;;;14.60;;
76597;SDS011;65486;53.144;18.134;2022-12-20T07:47:32;44.40;;;17.80;;
76597;SDS011;65486;53.144;18.134;2022-12-20T07:50:01;30.50;;;14.00;;
76597;SDS011;65486;53.144;18.134;2022-12-20T07:52:28;35.30;;;15.10;;
76597;SDS011;65486;53.144;18.134;2022-12-20T07:55:00;30.40;;;12.90;;
76597;SDS011;65486;53.144;18.134;2022-12-20T07:57:36;35.00;;;15.80;;
76597;SDS011;65486;53.144;18.134;2022-12-20T08:00:12;30.20;;;13.40;;
76597;SDS011;65486;53.144;18.134;2022-12-20T08:02:43;26.60;;;10.00;;
76597;SDS011;65486;53.144;18.134;2022-12-20T08:05:40;33.40;;;13.30;;
76597;SDS011;65486;53.144;18.134;2022-12-20T08:08:12;45.90;;;19.00;;
76597;SDS011;65486;53.144;18.134;2022-12-20T08:10:40;28.50;;;10.50;;
76597;SDS011;65486;53.144;18.134;2022-12-20T08:13:07;33.20;;;15.20;;
76597;SDS011;65486;53.144;18.134;2022-12-20T08:15:35;32.90;;;14.90;;
76597;SDS011;65486;53.144;18.134;2022-12-20T08:18:02;35.70;;;14.80;;
76597;SDS011;65486;53.144;18.134;2022-12-20T08:20:29;38.00;;;16.00;;
76597;SDS011;65486;53.144;18.134;2022-12-20T08:22:56;37.60;;;15.70;;
76597;SDS011;65486;53.144;18.134;2022-12-20T08:25:23;52.50;;;16.90;;
76597;SDS011;65486;53.144;18.134;2022-12-20T08:27:51;36.70;;;15.00;;
76597;SDS011;65486;53.144;18.134;2022-12-20T08:30:19;25.80;;;11.80;;
76597;SDS011;65486;53.144;18.134;2022-12-20T08:32:46;37.30;;;16.20;;
76597;SDS011;65486;53.144;18.134;2022-12-20T08:35:14;30.50;;;13.70;;
76597;SDS011;65486;53.144;18.134;2022-12-20T08:37:41;41.00;;;16.70;;
76597;SDS011;65486;53.144;18.134;2022-12-20T08:40:08;40.00;;;16.50;;
76597;SDS011;65486;53.144;18.134;2022-12-20T08:42:36;29.50;;;13.60;;
76597;SDS011;65486;53.144;18.134;2022-12-20T08:45:04;27.20;;;11.70;;
76597;SDS011;65486;53.144;18.134;2022-12-20T08:47:31;24.70;;;11.30;;
76597;SDS011;65486;53.144;18.134;2022-12-20T08:49:58;34.10;;;14.60;;
76597;SDS011;65486;53.144;18.134;2022-12-20T08:52:29;29.70;;;13.70;;
76597;SDS011;65486;53.144;18.134;2022-12-20T08:54:57;28.80;;;11.70;;
76597;SDS011;65486;53.144;18.134;2022-12-20T08:57:24;31.40;;;14.20;;
76597;SDS011;65486;53.144;18.134;2022-12-20T08:59:51;34.10;;;15.30;;
76597;SDS011;65486;53.144;18.134;2022-12-20T09:02:19;34.40;;;15.70;;
76597;SDS011;65486;53.144;18.134;2022-12-20T09:04:46;28.80;;;13.80;;
76597;SDS011;65486;53.144;18.134;2022-12-20T09:07:14;32.40;;;14.80;;
76597;SDS011;65486;53.144;18.134;2022-12-20T09:09:40;29.10;;;14.00;;
76597;SDS011;65486;53.144;18.134;2022-12-20T09:12:08;32.10;;;13.20;;
76597;SDS011;65486;53.144;18.134;2022-12-20T09:14:34;25.60;;;11.60;;
76597;SDS011;65486;53.144;18.134;2022-12-20T09:17:01;24.70;;;12.50;;
76597;SDS011;65486;53.144;18.134;2022-12-20T09:19:28;22.70;;;10.80;;
76597;SDS011;65486;53.144;18.134;2022-12-20T09:21:56;24.40;;;12.00;;
76597;SDS011;65486;53.144;18.134;2022-12-20T09:24:25;27.90;;;12.20;;
76597;SDS011;65486;53.144;18.134;2022-12-20T09:26:52;33.10;;;15.70;;
76597;SDS011;65486;53.144;18.134;2022-12-20T09:29:22;36.80;;;16.00;;
76597;SDS011;65486;53.144;18.134;2022-12-20T09:31:58;32.90;;;15.20;;
76597;SDS011;65486;53.144;18.134;2022-12-20T09:34:25;33.20;;;14.70;;
76597;SDS011;65486;53.144;18.134;2022-12-20T09:36:53;22.30;;;10.60;;
76597;SDS011;65486;53.144;18.134;2022-12-20T09:39:20;31.70;;;13.80;;
76597;SDS011;65486;53.144;18.134;2022-12-20T09:41:50;32.00;;;14.80;;
76597;SDS011;65486;53.144;18.134;2022-12-20T09:44:31;23.30;;;10.40;;
76597;SDS011;65486;53.144;18.134;2022-12-20T09:47:03;31.30;;;13.40;;
76597;SDS011;65486;53.144;18.134;2022-12-20T09:49:52;32.90;;;13.60;;
76597;SDS011;65486;53.144;18.134;2022-12-20T09:57:53;28.90;;;13.80;;
76597;SDS011;65486;53.144;18.134;2022-12-20T10:00:45;29.60;;;13.30;;
76597;SDS011;65486;53.144;18.134;2022-12-20T10:03:21;31.10;;;13.60;;
76597;SDS011;65486;53.144;18.134;2022-12-20T10:05:51;30.50;;;14.30;;
76597;SDS011;65486;53.144;18.134;2022-12-20T10:08:42;25.70;;;10.40;;
76597;SDS011;65486;53.144;18.134;2022-12-20T10:14:26;33.10;;;14.30;;
76597;SDS011;65486;53.144;18.134;2022-12-20T10:17:07;29.10;;;12.60;;
76597;SDS011;65486;53.144;18.134;2022-12-20T10:22:41;32.70;;;14.80;;
76597;SDS011;65486;53.144;18.134;2022-12-20T10:25:19;22.30;;;9.30;;
76597;SDS011;65486;53.144;18.134;2022-12-20T10:27:50;27.90;;;12.60;;
76597;SDS011;65486;53.144;18.134;2022-12-20T10:30:24;28.10;;;12.80;;
76597;SDS011;65486;53.144;18.134;2022-12-20T10:32:54;31.50;;;14.50;;
76597;SDS011;65486;53.144;18.134;2022-12-20T10:35:24;19.30;;;9.20;;
76597;SDS011;65486;53.144;18.134;2022-12-20T10:38:07;24.90;;;10.30;;
76597;SDS011;65486;53.144;18.134;2022-12-20T10:40:41;30.70;;;13.90;;
76597;SDS011;65486;53.144;18.134;2022-12-20T10:43:13;27.00;;;11.90;;
76597;SDS011;65486;53.144;18.134;2022-12-20T10:45:59;28.00;;;12.10;;
76597;SDS011;65486;53.144;18.134;2022-12-20T10:58:59;32.30;;;14.30;;
76597;SDS011;65486;53.144;18.134;2022-12-20T11:01:35;23.10;;;10.00;;
76597;SDS011;65486;53.144;18.134;2022-12-20T11:04:04;29.70;;;13.80;;
76597;SDS011;65486;53.144;18.134;2022-12-20T11:09:20;32.00;;;13.90;;
76597;SDS011;65486;53.144;18.134;2022-12-20T11:14:28;26.00;;;13.20;;
76597;SDS011;65486;53.144;18.134;2022-12-20T11:16:58;29.70;;;14.10;;
76597;SDS011;65486;53.144;18.134;2022-12-20T11:19:40;34.60;;;14.70;;
76597;SDS011;65486;53.144;18.134;2022-12-20T11:31:15;37.90;;;15.80;;
76597;SDS011;65486;53.144;18.134;2022-12-20T11:39:35;44.20;;;16.00;;
76597;SDS011;65486;53.144;18.134;2022-12-20T11:44:55;32.50;;;14.10;;
76597;SDS011;65486;53.144;18.134;2022-12-20T11:50:41;33.30;;;14.00;;
76597;SDS011;65486;53.144;18.134;2022-12-20T11:59:04;29.20;;;13.00;;
76597;SDS011;65486;53.144;18.134;2022-12-20T12:01:42;30.30;;;13.70;;
76597;SDS011;65486;53.144;18.134;2022-12-20T12:04:24;34.20;;;15.50;;
76597;SDS011;65486;53.144;18.134;2022-12-20T12:07:03;33.10;;;15.50;;
76597;SDS011;65486;53.144;18.134;2022-12-20T12:12:42;30.80;;;14.20;;
76597;SDS011;65486;53.144;18.134;2022-12-20T12:20:47;33.70;;;14.40;;
76597;SDS011;65486;53.144;18.134;2022-12-20T12:25:57;36.50;;;16.90;;
76597;SDS011;65486;53.144;18.134;2022-12-20T12:28:27;29.40;;;13.20;;
76597;SDS011;65486;53.144;18.134;2022-12-20T12:30:58;31.70;;;13.50;;
76597;SDS011;65486;53.144;18.134;2022-12-20T12:33:42;35.10;;;15.30;;
76597;SDS011;65486;53.144;18.134;2022-12-20T12:44:57;38.40;;;16.10;;
76597;SDS011;65486;53.144;18.134;2022-12-20T12:53:34;35.70;;;14.70;;
76597;SDS011;65486;53.144;18.134;2022-12-20T12:56:28;33.00;;;14.60;;
76597;SDS011;65486;53.144;18.134;2022-12-20T13:04:59;36.80;;;16.60;;
76597;SDS011;65486;53.144;18.134;2022-12-20T13:20:40;33.80;;;14.50;;
76597;SDS011;65486;53.144;18.134;2022-12-20T13:25:39;30.50;;;12.10;;
76597;SDS011;65486;53.144;18.134;2022-12-20T13:33:50;35.70;;;15.90;;
76597;SDS011;65486;53.144;18.134;2022-12-20T13:36:28;43.70;;;19.20;;
76597;SDS011;65486;53.144;18.134;2022-12-20T13:41:47;52.00;;;23.60;;
76597;SDS011;65486;53.144;18.134;2022-12-20T13:47:30;47.50;;;20.60;;
76597;SDS011;65486;53.144;18.134;2022-12-20T13:53:16;41.40;;;18.10;;
76597;SDS011;65486;53.144;18.134;2022-12-20T13:55:45;16.20;;;7.80;;
76597;SDS011;65486;53.144;18.134;2022-12-20T13:58:21;43.20;;;22.40;;
76597;SDS011;65486;53.144;18.134;2022-12-20T14:00:50;41.20;;;20.50;;
76597;SDS011;65486;53.144;18.134;2022-12-20T14:03:22;41.90;;;17.40;;
76597;SDS011;65486;53.144;18.134;2022-12-20T14:06:01;39.10;;;17.20;;
76597;SDS011;65486;53.144;18.134;2022-12-20T14:08:34;40.60;;;17.40;;
76597;SDS011;65486;53.144;18.134;2022-12-20T14:11:11;33.30;;;13.50;;
76597;SDS011;65486;53.144;18.134;2022-12-20T14:13:41;39.00;;;16.40;;
76597;SDS011;65486;53.144;18.134;2022-12-20T14:16:15;43.80;;;18.50;;
76597;SDS011;65486;53.144;18.134;2022-12-20T14:18:50;31.80;;;13.20;;
76597;SDS011;65486;53.144;18.134;2022-12-20T14:21:27;41.60;;;19.20;;
76597;SDS011;65486;53.144;18.134;2022-12-20T14:23:55;40.80;;;17.50;;
76597;SDS011;65486;53.144;18.134;2022-12-20T14:26:46;40.00;;;18.10;;
76597;SDS011;65486;53.144;18.134;2022-12-20T14:29:19;41.20;;;17.20;;
76597;SDS011;65486;53.144;18.134;2022-12-20T14:31:55;30.60;;;13.10;;
76597;SDS011;65486;53.144;18.134;2022-12-20T14:34:27;41.20;;;17.90;;
76597;SDS011;65486;53.144;18.134;2022-12-20T14:42:36;46.40;;;20.90;;
76597;SDS011;65486;53.144;18.134;2022-12-20T14:45:14;46.50;;;20.40;;
76597;SDS011;65486;53.144;18.134;2022-12-20T14:50:51;52.40;;;23.80;;
76597;SDS011;65486;53.144;18.134;2022-12-20T14:53:20;37.50;;;16.40;;
76597;SDS011;65486;53.144;18.134;2022-12-20T14:55:53;48.50;;;20.20;;
76597;SDS011;65486;53.144;18.134;2022-12-20T14:58:27;49.40;;;21.80;;
76597;SDS011;65486;53.144;18.134;2022-12-20T15:01:00;51.10;;;22.50;;
76597;SDS011;65486;53.144;18.134;2022-12-20T15:03:51;51.50;;;22.70;;
76597;SDS011;65486;53.144;18.134;2022-12-20T15:09:06;53.10;;;23.30;;
76597;SDS011;65486;53.144;18.134;2022-12-20T15:11:34;56.60;;;23.40;;
76597;SDS011;65486;53.144;18.134;2022-12-20T15:16:50;57.80;;;24.80;;
76597;SDS011;65486;53.144;18.134;2022-12-20T15:19:36;54.50;;;23.20;;
76597;SDS011;65486;53.144;18.134;2022-12-20T15:22:13;47.60;;;18.90;;
76597;SDS011;65486;53.144;18.134;2022-12-20T15:24:43;50.30;;;21.90;;
76597;SDS011;65486;53.144;18.134;2022-12-20T15:27:13;41.90;;;19.40;;
76597;SDS011;65486;53.144;18.134;2022-12-20T15:29:41;42.00;;;19.40;;
76597;SDS011;65486;53.144;18.134;2022-12-20T15:32:16;50.40;;;20.10;;
76597;SDS011;65486;53.144;18.134;2022-12-20T15:34:51;34.10;;;13.90;;
76597;SDS011;65486;53.144;18.134;2022-12-20T15:37:24;47.30;;;20.00;;
76597;SDS011;65486;53.144;18.134;2022-12-20T15:40:01;42.50;;;19.50;;
76597;SDS011;65486;53.144;18.134;2022-12-20T15:42:28;45.30;;;19.40;;
76597;SDS011;65486;53.144;18.134;2022-12-20T15:44:58;41.70;;;19.40;;
76597;SDS011;65486;53.144;18.134;2022-12-20T15:47:28;42.60;;;18.20;;
76597;SDS011;65486;53.144;18.134;2022-12-20T15:49:59;45.40;;;19.40;;
76597;SDS011;65486;53.144;18.134;2022-12-20T15:52:28;49.70;;;21.60;;
76597;SDS011;65486;53.144;18.134;2022-12-20T15:54:55;29.20;;;12.30;;
76597;SDS011;65486;53.144;18.134;2022-12-20T15:57:25;56.80;;;21.60;;
76597;SDS011;65486;53.144;18.134;2022-12-20T15:59:54;53.40;;;22.20;;
76597;SDS011;65486;53.144;18.134;2022-12-20T16:02:26;53.70;;;22.40;;
76597;SDS011;65486;53.144;18.134;2022-12-20T16:04:56;55.60;;;23.50;;
76597;SDS011;65486;53.144;18.134;2022-12-20T16:07:25;58.80;;;23.40;;
76597;SDS011;65486;53.144;18.134;2022-12-20T16:09:53;58.30;;;26.50;;
76597;SDS011;65486;53.144;18.134;2022-12-20T16:12:22;41.30;;;17.60;;
76597;SDS011;65486;53.144;18.134;2022-12-20T16:14:54;48.60;;;22.50;;
76597;SDS011;65486;53.144;18.134;2022-12-20T16:17:24;66.30;;;26.50;;
76597;SDS011;65486;53.144;18.134;2022-12-20T16:19:58;58.80;;;25.70;;
76597;SDS011;65486;53.144;18.134;2022-12-20T16:22:25;52.00;;;22.00;;
76597;SDS011;65486;53.144;18.134;2022-12-20T16:24:52;58.00;;;25.50;;
76597;SDS011;65486;53.144;18.134;2022-12-20T16:27:19;58.50;;;26.00;;
76597;SDS011;65486;53.144;18.134;2022-12-20T16:29:47;48.30;;;21.40;;
76597;SDS011;65486;53.144;18.134;2022-12-20T16:32:17;62.00;;;27.20;;
76597;SDS011;65486;53.144;18.134;2022-12-20T16:34:48;54.60;;;23.50;;
76597;SDS011;65486;53.144;18.134;2022-12-20T16:37:17;58.80;;;23.40;;
76597;SDS011;65486;53.144;18.134;2022-12-20T16:39:47;53.70;;;23.00;;
76597;SDS011;65486;53.144;18.134;2022-12-20T16:42:24;53.20;;;22.70;;
76597;SDS011;65486;53.144;18.134;2022-12-20T16:44:52;51.80;;;20.30;;
76597;SDS011;65486;53.144;18.134;2022-12-20T16:47:22;49.80;;;20.30;;
76597;SDS011;65486;53.144;18.134;2022-12-20T16:49:50;50.30;;;22.00;;
76597;SDS011;65486;53.144;18.134;2022-12-20T16:52:17;54.70;;;22.10;;
76597;SDS011;65486;53.144;18.134;2022-12-20T16:54:45;52.40;;;21.80;;
76597;SDS011;65486;53.144;18.134;2022-12-20T16:57:15;50.90;;;21.40;;
76597;SDS011;65486;53.144;18.134;2022-12-20T16:59:46;43.80;;;19.60;;
76597;SDS011;65486;53.144;18.134;2022-12-20T17:02:47;43.20;;;19.40;;
76597;SDS011;65486;53.144;18.134;2022-12-20T17:05:19;49.30;;;21.10;;
76597;SDS011;65486;53.144;18.134;2022-12-20T17:07:56;46.00;;;19.80;;
76597;SDS011;65486;53.144;18.134;2022-12-20T17:10:26;49.20;;;21.10;;
76597;SDS011;65486;53.144;18.134;2022-12-20T17:12:56;47.90;;;20.60;;
76597;SDS011;65486;53.144;18.134;2022-12-20T17:15:26;57.40;;;22.80;;